Time;durP1;ratioP1;P1;durP2;ratioP2;P2;SDS_P1;SDS_P2;PMS_P1;PMS_P2;Temp;Humidity;BMP_temperature;BMP_pressure;BME280_temperature;BME280_humidity;BME280_pressure;Samples;Min_cycle;Max_cycle;Signal;HPM_P1;HPM_P2
2023/04/04 00:00:24;;;;;;;1999.90;999.90;;;0.40;98.30;;;;;;5054446;28;20088;-73
2023/04/04 00:02:50;;;;;;;1999.90;999.90;;;0.40;98.30;;;;;;5052879;28;20091;-73
2023/04/04 00:05:16;;;;;;;1999.90;999.90;;;0.30;99.10;;;;;;5054152;28;20029;-73
2023/04/04 00:07:44;;;;;;;1999.90;999.90;;;0.40;98.00;;;;;;5054282;28;20124;-73
2023/04/04 00:10:10;;;;;;;1999.90;999.90;;;0.30;98.50;;;;;;5054011;28;20025;-73
2023/04/04 00:12:36;;;;;;;1999.90;999.90;;;0.30;98.40;;;;;;5054642;28;20487;-73
2023/04/04 00:15:01;;;;;;;1999.90;999.90;;;0.30;98.60;;;;;;5052567;28;20037;-73
2023/04/04 00:17:27;;;;;;;1999.90;999.90;;;0.20;98.90;;;;;;5052688;28;20471;-73
2023/04/04 00:19:52;;;;;;;1999.90;999.90;;;0.20;99.00;;;;;;5052486;28;20040;-73
2023/04/04 00:22:18;;;;;;;1999.90;999.90;;;0.20;99.70;;;;;;5052373;28;20037;-73
2023/04/04 00:24:43;;;;;;;1999.90;999.90;;;0.20;99.40;;;;;;5054156;28;20095;-73
2023/04/04 00:27:09;;;;;;;1999.90;999.90;;;0.20;99.10;;;;;;5054177;28;20112;-73
2023/04/04 00:29:36;;;;;;;1999.90;999.90;;;0.10;99.40;;;;;;5053853;28;20033;-73
2023/04/04 00:32:02;;;;;;;1999.90;999.90;;;0.10;99.50;;;;;;5052375;28;20103;-73
2023/04/04 00:34:28;;;;;;;1999.90;999.90;;;0.00;99.30;;;;;;5053730;28;20026;-73
2023/04/04 00:36:53;;;;;;;1999.90;999.90;;;0.00;99.70;;;;;;5053717;28;20060;-73
2023/04/04 00:39:19;;;;;;;1999.90;999.90;;;0.00;99.90;;;;;;5053814;28;20029;-73
2023/04/04 00:41:47;;;;;;;1999.90;999.90;;;0.00;99.60;;;;;;5053799;28;20095;-73
2023/04/04 00:44:12;;;;;;;1999.90;999.90;;;0.00;99.80;;;;;;5053674;28;20026;-73
2023/04/04 00:46:38;;;;;;;1999.90;999.90;;;0.00;99.10;;;;;;5053969;28;20037;-73
2023/04/04 00:49:03;;;;;;;1999.90;999.90;;;0.00;99.20;;;;;;5053682;28;20097;-73
2023/04/04 00:51:29;;;;;;;1999.90;999.90;;;-0.10;99.40;;;;;;5054055;28;20092;-73
2023/04/04 00:53:55;;;;;;;1999.90;999.90;;;-0.10;99.40;;;;;;5053582;28;20030;-73
2023/04/04 00:56:21;;;;;;;1999.90;999.90;;;-0.10;99.10;;;;;;5052445;28;20040;-73
2023/04/04 00:58:47;;;;;;;1999.90;999.90;;;-0.10;99.20;;;;;;5053811;28;20521;-73
2023/04/04 01:01:12;;;;;;;1999.90;999.90;;;0.00;99.30;;;;;;5053504;28;20029;-73
2023/04/04 01:03:38;;;;;;;1999.90;999.90;;;0.00;99.10;;;;;;5055775;28;20380;-73
2023/04/04 01:06:08;;;;;;;1999.90;999.90;;;0.00;99.60;;;;;;5055461;28;20497;-73
2023/04/04 01:08:36;;;;;;;1999.90;999.90;;;0.00;99.00;;;;;;5056595;28;20074;-73
2023/04/04 01:11:02;;;;;;;1999.90;999.90;;;0.00;99.90;;;;;;5056537;28;20037;-73
2023/04/04 01:13:28;;;;;;;1999.90;999.90;;;-0.10;99.20;;;;;;5055470;28;20083;-73
2023/04/04 01:15:54;;;;;;;1999.90;999.90;;;-0.10;99.50;;;;;;5056331;28;20390;-73
2023/04/04 01:18:22;;;;;;;1999.90;999.90;;;0.00;99.00;;;;;;5057082;28;20041;-72
2023/04/04 01:21:04;;;;;;;1999.90;999.90;;;0.00;99.40;;;;;;5056996;28;20029;-73
2023/04/04 01:23:55;;;;;;;1999.90;999.90;;;-0.10;99.50;;;;;;5057162;28;20065;-73
2023/04/04 01:26:22;;;;;;;1999.90;999.90;;;0.00;99.90;;;;;;5056937;28;20153;-72
2023/04/04 01:28:48;;;;;;;1999.90;999.90;;;-0.20;99.70;;;;;;5056775;28;21017;-72
2023/04/04 01:31:16;;;;;;;1999.90;999.90;;;-0.20;99.90;;;;;;5056337;28;20092;-71
2023/04/04 01:33:49;;;;;;;1999.90;999.90;;;-0.20;99.90;;;;;;5056539;28;20033;-72
2023/04/04 01:36:26;;;;;;;1999.90;999.90;;;-0.40;99.90;;;;;;5056682;28;20029;-72
2023/04/04 01:39:11;;;;;;;1999.90;999.90;;;-0.40;99.90;;;;;;5056621;28;20477;-72
2023/04/04 01:41:38;;;;;;;1999.90;999.90;;;-0.40;99.90;;;;;;5056155;28;20561;-72
2023/04/04 01:44:03;;;;;;;1999.90;999.90;;;-0.50;99.90;;;;;;5056317;28;20045;-72
2023/04/04 01:46:30;;;;;;;1999.90;999.90;;;-0.50;99.90;;;;;;5056576;28;20034;-72
2023/04/04 01:48:55;;;;;;;1999.90;999.90;;;-0.60;99.90;;;;;;5054732;28;20041;-72
2023/04/04 01:51:22;;;;;;;1999.90;999.90;;;-0.70;99.90;;;;;;5054410;28;20030;-72
2023/04/04 01:53:48;;;;;;;1999.90;999.90;;;-0.80;99.90;;;;;;5056166;28;20048;-72
2023/04/04 01:56:13;;;;;;;1999.90;999.90;;;-1.00;99.90;;;;;;5055857;28;20395;-72
2023/04/04 01:58:39;;;;;;;1999.90;999.90;;;-1.00;99.90;;;;;;5056178;28;20030;-72
2023/04/04 02:01:05;;;;;;;1999.90;999.90;;;-1.00;99.90;;;;;;5056257;28;20495;-72
2023/04/04 02:03:31;;;;;;;1999.90;999.90;;;-1.10;99.90;;;;;;5055812;28;20090;-72
2023/04/04 02:05:56;;;;;;;1999.90;999.90;;;-1.10;99.90;;;;;;5055870;28;20088;-72
2023/04/04 02:08:22;;;;;;;1999.90;999.90;;;-1.20;99.90;;;;;;5056004;28;20092;-72
2023/04/04 02:10:48;;;;;;;1999.90;999.90;;;-1.20;99.90;;;;;;5055864;28;20153;-72
2023/04/04 02:13:13;;;;;;;1999.90;999.90;;;-1.30;99.90;;;;;;5056159;28;20399;-72
2023/04/04 02:15:39;;;;;;;1999.90;999.90;;;-1.40;99.90;;;;;;5055644;28;20490;-72
2023/04/04 02:18:04;;;;;;;1999.90;999.90;;;-1.30;99.90;;;;;;5055670;28;20048;-72
2023/04/04 02:20:30;;;;;;;1999.90;999.90;;;-1.30;99.90;;;;;;5055832;28;20791;-72
2023/04/04 02:22:55;;;;;;;1999.90;999.90;;;-1.30;99.90;;;;;;5055972;28;20030;-71
2023/04/04 02:25:23;;;;;;;1999.90;999.90;;;-1.40;99.90;;;;;;5055677;28;20490;-72
2023/04/04 02:27:49;;;;;;;1999.90;999.90;;;-1.60;99.90;;;;;;5055610;28;20522;-71
2023/04/04 02:30:15;;;;;;;1999.90;999.90;;;-1.50;99.90;;;;;;5055178;28;20044;-72
2023/04/04 02:32:41;;;;;;;1999.90;999.90;;;-1.40;99.90;;;;;;5055624;28;20030;-72
2023/04/04 02:35:07;;;;;;;1999.90;999.90;;;-1.40;99.90;;;;;;5055982;28;20033;-72
2023/04/04 02:37:33;;;;;;;1999.90;999.90;;;-1.40;99.90;;;;;;5056281;28;20464;-72
2023/04/04 02:39:58;;;;;;;1999.90;999.90;;;-1.40;99.90;;;;;;5054069;28;20033;-72
2023/04/04 02:42:24;;;;;;;1999.90;999.90;;;-1.50;99.90;;;;;;5055351;28;20033;-72
2023/04/04 02:44:50;;;;;;;1999.90;999.90;;;-1.60;99.90;;;;;;5053404;28;20036;-72
2023/04/04 02:47:15;;;;;;;1999.90;999.90;;;-1.70;99.90;;;;;;5053739;28;20064;-72
2023/04/04 02:49:41;;;;;;;1999.90;999.90;;;-1.80;99.90;;;;;;5055275;28;20057;-72
2023/04/04 02:52:07;;;;;;;1999.90;999.90;;;-1.80;99.90;;;;;;5055358;28;20104;-72
2023/04/04 02:54:32;;;;;;;1999.90;999.90;;;-1.80;99.90;;;;;;5053549;28;20140;-72
2023/04/04 02:56:58;;;;;;;1999.90;999.90;;;-1.80;99.90;;;;;;5055092;28;20030;-72
2023/04/04 02:59:24;;;;;;;1999.90;999.90;;;-1.70;99.90;;;;;;5055040;28;20115;-72
2023/04/04 03:01:50;;;;;;;1999.90;999.90;;;-1.70;99.90;;;;;;5055028;28;20041;-72
2023/04/04 03:04:18;;;;;;;1999.90;999.90;;;-1.70;99.90;;;;;;5053398;28;20052;-72
2023/04/04 03:06:44;;;;;;;1999.90;999.90;;;-1.90;99.90;;;;;;5053661;28;20029;-72
2023/04/04 03:09:10;;;;;;;1999.90;999.90;;;-1.80;99.90;;;;;;5053501;28;20858;-72
2023/04/04 03:11:35;;;;;;;1999.90;999.90;;;-1.80;99.90;;;;;;5053437;28;20112;-72
2023/04/04 03:14:01;;;;;;;1999.90;999.90;;;-1.90;99.90;;;;;;5054695;28;20083;-72
2023/04/04 03:16:28;;;;;;;1999.90;999.90;;;-1.80;99.90;;;;;;5053528;28;20025;-72
2023/04/04 03:18:54;;;;;;;1999.90;999.90;;;-1.90;99.90;;;;;;5054930;28;20030;-72
2023/04/04 03:21:20;;;;;;;1999.90;999.90;;;-1.90;99.90;;;;;;5054842;28;20052;-72
2023/04/04 03:23:45;;;;;;;1999.90;999.90;;;-2.00;99.90;;;;;;5053284;28;20395;-72
2023/04/04 03:26:11;;;;;;;1999.90;999.90;;;-1.90;99.90;;;;;;5053972;28;20071;-72
2023/04/04 03:28:36;;;;;;;1999.90;999.90;;;-2.00;99.90;;;;;;5054706;28;20100;-72
2023/04/04 03:31:04;;;;;;;1999.90;999.90;;;-2.00;99.90;;;;;;5054838;28;20179;-72
2023/04/04 03:33:29;;;;;;;1999.90;999.90;;;-2.10;99.90;;;;;;5054875;28;20041;-72
2023/04/04 03:35:55;;;;;;;1999.90;999.90;;;-2.20;99.90;;;;;;5054591;28;20056;-72
2023/04/04 03:38:20;;;;;;;1999.90;999.90;;;-2.10;99.90;;;;;;5053125;28;20096;-72
2023/04/04 03:40:46;;;;;;;1999.90;999.90;;;-2.20;99.90;;;;;;5054070;28;20386;-72
2023/04/04 03:43:11;;;;;;;1999.90;999.90;;;-2.20;99.90;;;;;;5054692;28;20405;-72
2023/04/04 03:45:37;;;;;;;1999.90;999.90;;;-2.20;99.90;;;;;;5054383;28;20040;-72
2023/04/04 03:48:02;;;;;;;1999.90;999.90;;;-2.30;99.90;;;;;;5054411;28;20045;-72
2023/04/04 03:50:29;;;;;;;1999.90;999.90;;;-2.30;99.90;;;;;;5054492;28;20853;-72
2023/04/04 03:52:57;;;;;;;1999.90;999.90;;;-2.30;99.90;;;;;;5054496;28;20033;-72
2023/04/04 03:55:22;;;;;;;1999.90;999.90;;;-2.40;99.90;;;;;;5054330;28;20557;-72
2023/04/04 03:57:48;;;;;;;1999.90;999.90;;;-2.20;99.90;;;;;;5054535;28;20052;-72
2023/04/04 04:00:13;;;;;;;1999.90;999.90;;;-2.30;99.90;;;;;;5054287;28;20104;-72
2023/04/04 04:02:39;;;;;;;1999.90;999.90;;;-2.30;99.90;;;;;;5054359;28;20038;-72
2023/04/04 04:05:05;;;;;;;1999.90;999.90;;;-2.30;99.90;;;;;;5054081;28;20033;-72
2023/04/04 04:07:31;;;;;;;1999.90;999.90;;;-2.30;99.90;;;;;;5052863;28;20390;-72
2023/04/04 04:09:56;;;;;;;1999.90;999.90;;;-2.30;99.90;;;;;;5053887;28;20061;-72
2023/04/04 04:12:22;;;;;;;1999.90;999.90;;;-2.50;99.90;;;;;;5054277;28;20054;-72
2023/04/04 04:14:48;;;;;;;1999.90;999.90;;;-2.50;99.90;;;;;;5053956;28;20100;-72
2023/04/04 04:17:14;;;;;;;1999.90;999.90;;;-2.60;99.90;;;;;;5054240;28;20487;-72
2023/04/04 04:19:39;;;;;;;1999.90;999.90;;;-2.60;99.90;;;;;;5053932;28;20029;-72
2023/04/04 04:22:05;;;;;;;1999.90;999.90;;;-2.50;99.90;;;;;;5054118;28;20457;-72
2023/04/04 04:24:30;;;;;;;1999.90;999.90;;;-2.50;99.90;;;;;;5053749;28;20029;-72
2023/04/04 04:26:56;;;;;;;1999.90;999.90;;;-2.70;99.90;;;;;;5052528;28;20034;-72
2023/04/04 04:29:22;;;;;;;1999.90;999.90;;;-2.70;99.90;;;;;;5052524;28;20048;-72
2023/04/04 04:31:47;;;;;;;1999.90;999.90;;;-2.60;99.90;;;;;;5052222;28;20137;-72
2023/04/04 04:34:13;;;;;;;1999.90;999.90;;;-2.60;99.90;;;;;;5053821;28;20040;-72
2023/04/04 04:36:38;;;;;;;1999.90;999.90;;;-2.50;99.90;;;;;;5053974;28;20037;-72
2023/04/04 04:39:04;;;;;;;1999.90;999.90;;;-2.60;99.90;;;;;;5056569;28;20040;-72
2023/04/04 04:41:30;;;;;;;1999.90;999.90;;;-2.70;99.90;;;;;;5057145;28;20113;-72
2023/04/04 04:43:55;;;;;;;1999.90;999.90;;;-2.70;99.90;;;;;;5057447;28;20088;-72
2023/04/04 04:46:21;;;;;;;1999.90;999.90;;;-2.80;99.90;;;;;;5060807;28;20473;-72
2023/04/04 04:48:46;;;;;;;1999.90;999.90;;;-2.80;99.90;;;;;;5059610;28;20044;-72
2023/04/04 04:51:13;;;;;;;1999.90;999.90;;;-2.90;99.90;;;;;;5059532;28;20034;-71
2023/04/04 04:53:39;;;;;;;1999.90;999.90;;;-2.80;99.90;;;;;;5057843;28;20029;-72
2023/04/04 04:56:05;;;;;;;1999.90;999.90;;;-2.80;99.90;;;;;;5057108;28;20034;-72
2023/04/04 04:58:31;;;;;;;1999.90;999.90;;;-2.70;99.90;;;;;;5057248;28;20474;-72
2023/04/04 05:00:57;;;;;;;1999.90;999.90;;;-2.60;99.90;;;;;;5056613;28;20034;-71
2023/04/04 05:03:22;;;;;;;1999.90;999.90;;;-2.50;99.90;;;;;;5057336;28;20040;-72
2023/04/04 05:05:48;;;;;;;1999.90;999.90;;;-2.50;99.90;;;;;;5056727;28;20064;-71
2023/04/04 05:08:14;;;;;;;1999.90;999.90;;;-2.50;99.90;;;;;;5056982;28;20037;-76
2023/04/04 05:10:40;;;;;;;1999.90;999.90;;;-2.50;99.90;;;;;;5057422;28;20026;-73
2023/04/04 05:13:05;;;;;;;1999.90;999.90;;;-2.50;99.90;;;;;;5055539;28;20069;-74
2023/04/04 05:15:31;;;;;;;1999.90;999.90;;;-2.70;99.90;;;;;;5055382;28;20383;-73
2023/04/04 05:17:58;;;;;;;1999.90;999.90;;;-2.70;99.90;;;;;;5054260;28;20040;-72
2023/04/04 05:20:23;;;;;;;1999.90;999.90;;;-2.80;99.90;;;;;;5055127;28;20055;-72
2023/04/04 05:22:50;;;;;;;1999.90;999.90;;;-2.70;99.90;;;;;;5056944;28;20079;-72
2023/04/04 05:25:15;;;;;;;1999.90;999.90;;;-2.70;99.90;;;;;;5054847;28;20077;-72
2023/04/04 05:27:41;;;;;;;1999.90;999.90;;;-2.70;99.90;;;;;;5056515;28;20684;-72
2023/04/04 05:30:08;;;;;;;1999.90;999.90;;;-2.70;99.90;;;;;;5056907;28;20037;-73
2023/04/04 05:32:34;;;;;;;1999.90;999.90;;;-2.80;99.90;;;;;;5058394;28;20502;-74
2023/04/04 05:35:00;;;;;;;1999.90;999.90;;;-2.80;99.90;;;;;;5056899;28;20030;-74
2023/04/04 05:37:26;;;;;;;1999.90;999.90;;;-2.80;99.90;;;;;;5058128;28;20033;-74
2023/04/04 05:39:52;;;;;;;1999.90;999.90;;;-2.60;99.90;;;;;;5059783;28;20026;-74
2023/04/04 05:42:18;;;;;;;1999.90;999.90;;;-2.40;99.90;;;;;;5057723;28;20041;-74
2023/04/04 05:44:43;;;;;;;1999.90;999.90;;;-2.30;99.90;;;;;;5057120;28;20037;-72
2023/04/04 05:47:09;;;;;;;1999.90;999.90;;;-2.30;99.90;;;;;;5057377;28;20048;-73
2023/04/04 05:49:34;;;;;;;1999.90;999.90;;;-2.30;99.90;;;;;;5057086;28;20037;-73
2023/04/04 05:52:00;;;;;;;1999.90;999.90;;;-2.10;99.90;;;;;;5055363;28;20038;-77
2023/04/04 05:54:26;;;;;;;1999.90;999.90;;;-2.00;99.90;;;;;;5056248;28;20034;-72
2023/04/04 05:56:51;;;;;;;1999.90;999.90;;;-2.10;99.90;;;;;;5056378;28;20498;-73
2023/04/04 05:59:17;;;;;;;1999.90;999.90;;;-2.10;99.90;;;;;;5056276;28;20037;-73
2023/04/04 06:01:43;;;;;;;1999.90;999.90;;;-2.00;99.90;;;;;;5056047;28;20033;-72
2023/04/04 06:04:09;;;;;;;1999.90;999.90;;;-2.00;99.90;;;;;;5055874;28;20487;-73
2023/04/04 06:06:35;;;;;;;1999.90;999.90;;;-1.80;99.90;;;;;;5056274;28;20037;-73
2023/04/04 06:09:00;;;;;;;1999.90;999.90;;;-1.80;99.90;;;;;;5056338;28;20037;-74
2023/04/04 06:11:26;;;;;;;1999.90;999.90;;;-1.80;99.90;;;;;;5056608;28;20073;-73
2023/04/04 06:13:53;;;;;;;1999.90;999.90;;;-1.70;99.90;;;;;;5055701;28;20037;-73
2023/04/04 06:16:20;;;;;;;1999.90;999.90;;;-1.60;99.90;;;;;;5057058;28;20029;-73
2023/04/04 06:18:45;;;;;;;1999.90;999.90;;;-1.60;99.90;;;;;;5055786;28;20033;-73
2023/04/04 06:21:12;;;;;;;1999.90;999.90;;;-1.50;99.90;;;;;;5055704;28;20491;-73
2023/04/04 06:23:38;;;;;;;1999.90;999.90;;;-1.40;99.90;;;;;;5055927;28;20037;-72
2023/04/04 06:26:04;;;;;;;1999.90;999.90;;;-1.30;99.90;;;;;;5055561;28;20034;-73
2023/04/04 06:28:29;;;;;;;1999.90;999.90;;;-1.20;99.90;;;;;;5055600;28;20040;-73
2023/04/04 06:30:55;;;;;;;1999.90;999.90;;;-1.20;99.90;;;;;;5055220;28;20502;-73
2023/04/04 06:33:20;;;;;;;1999.90;999.90;;;-1.10;99.90;;;;;;5056322;28;20085;-72
2023/04/04 06:35:46;;;;;;;1999.90;999.90;;;-1.10;99.90;;;;;;5055138;28;20032;-72
2023/04/04 06:38:12;;;;;;;1999.90;999.90;;;-1.00;99.90;;;;;;5055641;28;20033;-72
2023/04/04 06:40:37;;;;;;;1999.90;999.90;;;-0.90;99.90;;;;;;5055184;28;20152;-72
2023/04/04 06:43:03;;;;;;;1999.90;999.90;;;-0.80;99.90;;;;;;5055702;28;20100;-74
2023/04/04 06:45:32;;;;;;;1999.90;999.90;;;-0.70;99.90;;;;;;5055246;28;20036;-73
2023/04/04 06:47:58;;;;;;;1999.90;999.90;;;-0.60;99.90;;;;;;5055241;28;20038;-73
2023/04/04 06:50:24;;;;;;;1999.90;999.90;;;-0.50;99.90;;;;;;5055408;28;20033;-73
2023/04/04 06:52:51;;;;;;;1999.90;999.90;;;-0.30;99.90;;;;;;5054152;28;20644;-73
2023/04/04 06:55:17;;;;;;;1999.90;999.90;;;-0.20;99.90;;;;;;5055098;28;20056;-73
2023/04/04 06:57:43;;;;;;;1999.90;999.90;;;-0.10;99.90;;;;;;5055887;28;20038;-73
2023/04/04 07:00:09;;;;;;;1999.90;999.90;;;0.10;99.90;;;;;;5054899;28;20471;-73
2023/04/04 07:02:35;;;;;;;1999.90;999.90;;;0.20;99.90;;;;;;5054955;28;20064;-73
2023/04/04 07:05:03;;;;;;;1999.90;999.90;;;0.40;99.90;;;;;;5055075;28;20483;-73
2023/04/04 07:07:31;;;;;;;1999.90;999.90;;;0.50;99.90;;;;;;5055212;28;20041;-73
2023/04/04 07:09:57;;;;;;;1999.90;999.90;;;0.60;99.90;;;;;;5054617;28;20064;-73
2023/04/04 07:12:22;;;;;;;1999.90;999.90;;;0.80;99.90;;;;;;5054930;28;20465;-73
2023/04/04 07:14:48;;;;;;;1999.90;999.90;;;1.00;99.90;;;;;;5054813;28;20033;-73
2023/04/04 07:17:13;;;;;;;1999.90;999.90;;;1.20;99.90;;;;;;5054809;28;20040;-73
2023/04/04 07:19:39;;;;;;;1999.90;999.90;;;1.30;99.90;;;;;;5054788;28;20037;-73
2023/04/04 07:22:05;;;;;;;1999.90;999.90;;;1.40;99.90;;;;;;5055090;28;20033;-73
2023/04/04 07:24:30;;;;;;;1999.90;999.90;;;1.60;99.90;;;;;;5054718;28;20480;-73
2023/04/04 07:26:56;;;;;;;1999.90;999.90;;;1.60;99.90;;;;;;5054768;28;20068;-73
2023/04/04 07:29:21;;;;;;;1999.90;999.90;;;1.80;99.90;;;;;;5055040;28;20064;-73
2023/04/04 07:31:47;;;;;;;1999.90;999.90;;;1.90;99.90;;;;;;5054533;28;20466;-73
2023/04/04 07:34:13;;;;;;;1999.90;999.90;;;2.00;99.90;;;;;;5054288;28;20075;-72
2023/04/04 07:36:38;;;;;;;1999.90;999.90;;;2.20;99.90;;;;;;5054767;28;20542;-73
2023/04/04 07:39:04;;;;;;;1999.90;999.90;;;2.20;99.90;;;;;;5055451;28;20087;-73
2023/04/04 07:41:30;;;;;;;1999.90;999.90;;;2.30;99.60;;;;;;5054232;28;20033;-73
2023/04/04 07:43:55;;;;;;;1999.90;999.90;;;2.40;99.20;;;;;;5054318;28;20111;-73
2023/04/04 07:46:21;;;;;;;1999.90;999.90;;;2.50;97.50;;;;;;5054588;28;20049;-73
2023/04/04 07:48:46;;;;;;;1999.90;999.90;;;2.60;97.60;;;;;;5054841;28;20041;-73
2023/04/04 07:51:12;;;;;;;1999.90;999.90;;;2.80;97.10;;;;;;5054380;28;20399;-73
2023/04/04 07:53:38;;;;;;;1999.90;999.90;;;2.90;97.20;;;;;;5054289;28;20086;-73
2023/04/04 07:56:06;;;;;;;1999.90;999.90;;;3.00;97.40;;;;;;5052893;28;20037;-73
2023/04/04 07:58:33;;;;;;;1999.90;999.90;;;3.10;97.00;;;;;;5054456;28;20077;-73
2023/04/04 08:01:02;;;;;;;1999.90;999.90;;;3.30;95.80;;;;;;5054063;28;20064;-73
2023/04/04 08:03:28;;;;;;;1999.90;999.90;;;3.40;95.70;;;;;;5054343;28;20104;-73
2023/04/04 08:05:53;;;;;;;1999.90;999.90;;;3.60;95.50;;;;;;5054070;28;20112;-73
2023/04/04 08:08:19;;;;;;;1999.90;999.90;;;3.70;94.80;;;;;;5054372;28;20033;-73
2023/04/04 08:10:45;;;;;;;1999.90;999.90;;;3.80;94.50;;;;;;5054281;28;20034;-73
2023/04/04 08:13:11;;;;;;;1999.90;999.90;;;3.80;93.10;;;;;;5054166;28;20041;-73
2023/04/04 08:15:37;;;;;;;1999.90;999.90;;;3.80;93.70;;;;;;5053868;28;20034;-73
2023/04/04 08:18:03;;;;;;;1999.90;999.90;;;3.80;92.70;;;;;;5054412;28;20072;-73
2023/04/04 08:20:29;;;;;;;1999.90;999.90;;;3.90;92.50;;;;;;5054116;28;20481;-73
2023/04/04 08:22:55;;;;;;;1999.90;999.90;;;4.10;93.30;;;;;;5054266;28;20037;-73
2023/04/04 08:25:20;;;;;;;1999.90;999.90;;;4.30;93.00;;;;;;5053848;28;20079;-73
2023/04/04 08:27:46;;;;;;;1999.90;999.90;;;4.30;91.80;;;;;;5054063;28;20041;-73
2023/04/04 08:30:13;;;;;;;1999.90;999.90;;;4.50;90.30;;;;;;5053940;28;20041;-73
2023/04/04 08:32:39;;;;;;;1999.90;999.90;;;4.60;90.50;;;;;;5052580;28;20033;-73
2023/04/04 08:35:05;;;;;;;1999.90;999.90;;;4.60;90.20;;;;;;5053335;28;20443;-73
2023/04/04 08:37:31;;;;;;;1999.90;999.90;;;4.80;89.00;;;;;;5054112;28;20036;-74
2023/04/04 08:39:57;;;;;;;1999.90;999.90;;;5.00;88.50;;;;;;5052353;28;20033;-73
2023/04/04 08:42:25;;;;;;;1999.90;999.90;;;5.10;87.10;;;;;;5054127;28;20060;-73
2023/04/04 08:44:52;;;;;;;1999.90;999.90;;;5.00;85.70;;;;;;5053626;28;20108;-73
2023/04/04 08:47:20;;;;;;;1999.90;999.90;;;5.10;85.70;;;;;;5053892;28;20039;-73
2023/04/04 08:49:48;;;;;;;1999.90;999.90;;;5.20;86.90;;;;;;5053750;28;20061;-73
2023/04/04 08:52:18;;;;;;;1999.90;999.90;;;5.20;85.20;;;;;;5053469;28;20446;-73
2023/04/04 08:54:45;;;;;;;1999.90;999.90;;;5.20;85.40;;;;;;5053383;28;20115;-73
2023/04/04 08:57:11;;;;;;;1999.90;999.90;;;5.20;85.00;;;;;;5052376;28;20099;-73
2023/04/04 08:59:37;;;;;;;1999.90;999.90;;;5.40;88.00;;;;;;5053554;28;20494;-73
2023/04/04 09:02:08;;;;;;;1999.90;999.90;;;5.60;85.20;;;;;;5053617;28;20041;-73
2023/04/04 09:04:34;;;;;;;1999.90;999.90;;;5.50;82.20;;;;;;5053466;28;20040;-73
2023/04/04 09:07:02;;;;;;;1999.90;999.90;;;5.60;84.40;;;;;;5053760;28;20025;-73
2023/04/04 09:09:29;;;;;;;1999.90;999.90;;;5.70;82.90;;;;;;5053362;28;20044;-73
2023/04/04 09:11:55;;;;;;;1999.90;999.90;;;5.70;82.30;;;;;;5053716;28;20033;-73
2023/04/04 09:14:20;;;;;;;1999.90;999.90;;;5.80;81.60;;;;;;5053384;28;20038;-73
2023/04/04 09:16:46;;;;;;;1999.90;999.90;;;5.80;82.50;;;;;;5053514;28;20059;-73
2023/04/04 09:19:12;;;;;;;1999.90;999.90;;;6.00;81.90;;;;;;5053587;28;20483;-73
2023/04/04 09:21:38;;;;;;;1999.90;999.90;;;5.90;80.50;;;;;;5053262;28;20080;-73
2023/04/04 09:24:04;;;;;;;1999.90;999.90;;;5.90;81.10;;;;;;5054380;28;20434;-73
2023/04/04 09:26:52;;;;;;;1999.90;999.90;;;6.00;82.40;;;;;;5057005;28;20487;-72
2023/04/04 09:29:19;;;;;;;1999.90;999.90;;;6.10;82.10;;;;;;5056897;28;20096;-72
2023/04/04 09:31:45;;;;;;;1999.90;999.90;;;6.30;81.10;;;;;;5080024;22;20065;-79
2023/04/04 09:34:16;;;;;;;1999.90;999.90;;;6.20;80.30;;;;;;5057031;28;20121;-79
2023/04/04 09:36:44;;;;;;;1999.90;999.90;;;6.30;83.80;;;;;;5072909;28;20037;-79
2023/04/04 09:39:11;;;;;;;1999.90;999.90;;;6.60;80.50;;;;;;5072745;28;20518;-79
2023/04/04 09:41:38;;;;;;;1999.90;999.90;;;6.70;79.40;;;;;;5072796;28;20061;-79
2023/04/04 09:44:06;;;;;;;1999.90;999.90;;;6.90;79.90;;;;;;5057225;28;20072;-79
2023/04/04 09:46:32;;;;;;;1999.90;999.90;;;7.10;80.60;;;;;;5073324;28;20495;-79
2023/04/04 09:48:59;;;;;;;1999.90;999.90;;;7.10;78.30;;;;;;5057553;28;20064;-79
2023/04/04 09:51:36;;;;;;;1999.90;999.90;;;7.00;78.90;;;;;;5057332;28;20025;-79
2023/04/04 09:54:02;;;;;;;1999.90;999.90;;;6.80;76.20;;;;;;5055658;28;20037;-79
2023/04/04 09:56:28;;;;;;;1999.90;999.90;;;6.70;78.10;;;;;;5055864;28;20021;-79
2023/04/04 09:58:54;;;;;;;1999.90;999.90;;;6.70;77.80;;;;;;5057034;28;20102;-79
2023/04/04 10:01:20;;;;;;;1999.90;999.90;;;6.80;77.40;;;;;;5058306;28;20029;-79
2023/04/04 10:03:53;;;;;;;1999.90;999.90;;;6.80;79.20;;;;;;5057246;28;20037;-79
2023/04/04 10:06:20;;;;;;;1999.90;999.90;;;7.00;79.00;;;;;;5057155;28;20029;-79
2023/04/04 10:08:45;;;;;;;1999.90;999.90;;;7.00;78.80;;;;;;5057019;28;20125;-79
2023/04/04 10:11:11;;;;;;;1999.90;999.90;;;6.90;77.30;;;;;;5057132;28;20113;-79
2023/04/04 10:13:42;;;;;;;1999.90;999.90;;;7.20;76.00;;;;;;5072391;28;20081;-79
2023/04/04 10:16:09;;;;;;;1999.90;999.90;;;7.20;75.70;;;;;;5057204;28;20025;-79
2023/04/04 10:18:35;;;;;;;1999.90;999.90;;;7.20;78.50;;;;;;5072283;28;20068;-79
2023/04/04 10:21:03;;;;;;;1999.90;999.90;;;7.20;77.10;;;;;;5055233;28;20487;-79
2023/04/04 10:23:29;;;;;;;1999.90;999.90;;;7.20;77.60;;;;;;5036175;28;20038;-79
2023/04/04 10:25:58;;;;;;;1999.90;999.90;;;7.10;76.50;;;;;;5036615;28;20365;-79
2023/04/04 10:28:25;;;;;;;1999.90;999.90;;;7.20;77.20;;;;;;5036544;28;20046;-79
2023/04/04 10:31:24;;;;;;;1999.90;999.90;;;7.20;75.90;;;;;;5034449;28;20038;-78
2023/04/04 10:34:27;;;;;;;1999.90;999.90;;;7.30;75.40;;;;;;5045883;28;20049;-80
2023/04/04 10:37:02;;;;;;;1999.90;999.90;;;7.40;76.70;;;;;;5051540;28;20034;-79
2023/04/04 10:39:39;;;;;;;1999.90;999.90;;;7.40;78.00;;;;;;5036088;28;20100;-78
2023/04/04 10:42:06;;;;;;;1999.90;999.90;;;7.50;76.20;;;;;;5051022;28;20037;-78
2023/04/04 10:44:36;;;;;;;1999.90;999.90;;;7.80;74.80;;;;;;5035694;28;20046;-78
2023/04/04 10:47:14;;;;;;;1999.90;999.90;;;7.90;76.30;;;;;;5051177;28;20038;-78
2023/04/04 10:49:42;;;;;;;1999.90;999.90;;;8.00;76.50;;;;;;5036150;28;20551;-79
2023/04/04 10:52:10;;;;;;;1999.90;999.90;;;7.90;75.30;;;;;;5050613;28;20518;-78
2023/04/04 10:54:36;;;;;;;1999.90;999.90;;;8.10;74.40;;;;;;5050697;28;20124;-79
2023/04/04 10:57:02;;;;;;;1999.90;999.90;;;8.00;72.70;;;;;;5035577;28;20100;-79
2023/04/04 10:59:28;;;;;;;1999.90;999.90;;;8.10;74.70;;;;;;5034355;28;20046;-79
2023/04/04 11:02:01;;;;;;;1999.90;999.90;;;8.10;73.90;;;;;;5050614;28;20029;-78
2023/04/04 11:04:36;;;;;;;1999.90;999.90;;;8.50;72.40;;;;;;5035553;28;20026;-79
2023/04/04 11:07:17;;;;;;;1999.90;999.90;;;8.40;74.90;;;;;;5050942;28;20099;-78
2023/04/04 11:10:00;;;;;;;1999.90;999.90;;;8.60;74.30;;;;;;5035596;28;20033;-78
2023/04/04 11:12:30;;;;;;;1999.90;999.90;;;8.80;74.90;;;;;;5050626;28;20084;-78
2023/04/04 11:15:02;;;;;;;1999.90;999.90;;;8.80;74.20;;;;;;5050388;28;20038;-78
2023/04/04 11:17:50;;;;;;;1999.90;999.90;;;8.70;73.10;;;;;;5035865;28;20030;-79
2023/04/04 11:20:37;;;;;;;1999.90;999.90;;;8.90;71.90;;;;;;5050361;28;20038;-78
2023/04/04 11:23:23;;;;;;;1999.90;999.90;;;9.00;72.40;;;;;;5039216;28;20367;-78
2023/04/04 11:25:55;;;;;;;1999.90;999.90;;;9.00;72.40;;;;;;5036304;28;20037;-77
2023/04/04 11:28:26;;;;;;;1999.90;999.90;;;9.10;73.50;;;;;;5037920;28;20070;-78
2023/04/04 11:31:17;;;;;;;1999.90;999.90;;;9.00;71.80;;;;;;5033517;28;20038;-77
2023/04/04 11:34:04;;;;;;;1999.90;999.90;;;9.00;72.20;;;;;;5050543;28;20041;-79
2023/04/04 11:36:36;;;;;;;1999.90;999.90;;;9.20;73.30;;;;;;5070358;28;20061;-78
2023/04/04 11:39:05;;;;;;;1999.90;999.90;;;9.30;70.80;;;;;;5040770;28;20088;-78
2023/04/04 11:42:09;;;;;;;1999.90;999.90;;;9.40;73.10;;;;;;5035236;28;20030;-78
2023/04/04 11:44:53;;;;;;;1999.90;999.90;;;9.50;71.30;;;;;;5036847;28;20033;-80
2023/04/04 11:47:21;;;;;;;1999.90;999.90;;;9.70;72.30;;;;;;5043742;28;20069;-79
2023/04/04 11:49:48;;;;;;;1999.90;999.90;;;9.90;72.50;;;;;;5039667;28;20041;-80
2023/04/04 11:52:20;;;;;;;1999.90;999.90;;;9.60;69.50;;;;;;5055093;28;20052;-79
2023/04/04 11:54:46;;;;;;;1999.90;999.90;;;9.70;71.20;;;;;;5053636;28;20040;-79
2023/04/04 11:57:14;;;;;;;1999.90;999.90;;;9.70;68.20;;;;;;5055065;28;20076;-80
2023/04/04 11:59:47;;;;;;;1999.90;999.90;;;9.60;72.80;;;;;;5055520;28;20026;-80
2023/04/04 12:02:18;;;;;;;1999.90;999.90;;;9.90;69.90;;;;;;5055345;28;20570;-79
2023/04/04 12:04:45;;;;;;;1999.90;999.90;;;9.70;69.70;;;;;;5055246;28;20474;-79